Time;durP1;ratioP1;P1;durP2;ratioP2;P2;SDS_P1;SDS_P2;PMS_P1;PMS_P2;Temp;Humidity;BMP_temperature;BMP_pressure;BME280_temperature;BME280_humidity;BME280_pressure;Samples;Min_cycle;Max_cycle;Signal;HPM_P1;HPM_P2
2024/02/22 00:00:06;;;;;;;3.67;1.83;;;;;;;;;;698453;28;3375;-63
2024/02/22 00:00:32;;;;;;;3.20;1.75;;;;;;;;;;701499;28;661;-62
2024/02/22 00:00:52;;;;;;;4.93;1.83;;;;;;;;;;703136;27;1038;-63
2024/02/22 00:01:12;;;;;;;4.63;1.80;;;;;;;;;;704584;27;4505;-64
2024/02/22 00:01:32;;;;;;;3.90;1.70;;;;;;;;;;705706;27;880;-63
2024/02/22 00:01:53;;;;;;;3.57;1.70;;;;;;;;;;700073;28;2352;-64
2024/02/22 00:02:16;;;;;;;3.35;1.60;;;;;;;;;;701474;28;936;-62
2024/02/22 00:02:37;;;;;;;4.28;1.80;;;;;;;;;;701711;28;1312;-64
2024/02/22 00:02:57;;;;;;;3.35;1.90;;;;;;;;;;701991;28;1458;-62
2024/02/22 00:03:18;;;;;;;3.40;1.70;;;;;;;;;;702026;28;927;-64
2024/02/22 00:03:38;;;;;;;3.22;1.67;;;;;;;;;;702293;27;1100;-64
2024/02/22 00:03:58;;;;;;;3.23;1.60;;;;;;;;;;700457;28;2572;-64
2024/02/22 00:04:20;;;;;;;4.10;1.80;;;;;;;;;;700143;28;4373;-64
2024/02/22 00:04:40;;;;;;;3.92;1.73;;;;;;;;;;701558;28;1054;-64
2024/02/22 00:05:00;;;;;;;4.00;1.70;;;;;;;;;;702802;28;1596;-64
2024/02/22 00:05:20;;;;;;;4.33;1.80;;;;;;;;;;699909;28;1433;-65
2024/02/22 00:05:41;;;;;;;4.90;2.20;;;;;;;;;;702548;28;1328;-65
2024/02/22 00:06:01;;;;;;;5.03;2.33;;;;;;;;;;702128;28;1607;-63
2024/02/22 00:06:21;;;;;;;4.10;1.83;;;;;;;;;;698386;28;923;-65
2024/02/22 00:06:41;;;;;;;3.45;1.67;;;;;;;;;;703193;28;852;-65
2024/02/22 00:07:02;;;;;;;3.00;1.63;;;;;;;;;;697414;28;2667;-65
2024/02/22 00:07:23;;;;;;;3.10;1.63;;;;;;;;;;697558;28;4561;-64
2024/02/22 00:07:43;;;;;;;4.03;1.80;;;;;;;;;;695352;28;901;-64
2024/02/22 00:08:03;;;;;;;4.47;1.83;;;;;;;;;;695063;28;1521;-65
2024/02/22 00:08:23;;;;;;;3.72;1.88;;;;;;;;;;698907;28;940;-65
2024/02/22 00:08:44;;;;;;;2.97;1.47;;;;;;;;;;694089;28;1229;-64
2024/02/22 00:09:04;;;;;;;3.17;1.50;;;;;;;;;;695188;28;1833;-64
2024/02/22 00:09:24;;;;;;;2.97;1.70;;;;;;;;;;697360;28;5127;-64
2024/02/22 00:09:45;;;;;;;3.33;1.60;;;;;;;;;;697841;28;782;-64
2024/02/22 00:10:07;;;;;;;3.30;1.60;;;;;;;;;;699064;28;1841;-63
2024/02/22 00:10:29;;;;;;;2.83;1.60;;;;;;;;;;698443;28;5049;-65
2024/02/22 00:10:50;;;;;;;3.90;1.70;;;;;;;;;;699968;28;1281;-64
2024/02/22 00:11:13;;;;;;;4.57;1.77;;;;;;;;;;704893;27;927;-64
2024/02/22 00:11:33;;;;;;;3.72;1.63;;;;;;;;;;705285;27;904;-64
2024/02/22 00:11:54;;;;;;;3.53;1.42;;;;;;;;;;704676;27;1028;-64
2024/02/22 00:12:14;;;;;;;3.97;1.60;;;;;;;;;;703222;28;1873;-65
2024/02/22 00:12:38;;;;;;;2.77;1.60;;;;;;;;;;703650;27;865;-63
2024/02/22 00:12:58;;;;;;;3.17;1.70;;;;;;;;;;699637;28;1698;-63
2024/02/22 00:13:19;;;;;;;3.03;1.40;;;;;;;;;;701152;28;4386;-64
2024/02/22 00:13:39;;;;;;;3.00;1.48;;;;;;;;;;701637;28;1342;-66
2024/02/22 00:14:00;;;;;;;3.00;1.50;;;;;;;;;;700760;28;2213;-63
2024/02/22 00:14:20;;;;;;;2.90;1.50;;;;;;;;;;702527;28;933;-64
2024/02/22 00:14:40;;;;;;;2.85;1.58;;;;;;;;;;702616;28;900;-63
2024/02/22 00:15:00;;;;;;;3.23;1.63;;;;;;;;;;702018;28;1789;-64
2024/02/22 00:15:23;;;;;;;3.15;1.60;;;;;;;;;;703400;27;1194;-64
2024/02/22 00:15:43;;;;;;;3.00;1.50;;;;;;;;;;704446;27;1914;-63
2024/02/22 00:16:05;;;;;;;3.63;1.50;;;;;;;;;;702344;28;930;-65
2024/02/22 00:16:25;;;;;;;3.03;1.50;;;;;;;;;;703457;28;4718;-65
2024/02/22 00:16:46;;;;;;;3.00;1.60;;;;;;;;;;703277;28;924;-64
2024/02/22 00:17:06;;;;;;;3.10;1.60;;;;;;;;;;702356;27;2324;-65
2024/02/22 00:17:28;;;;;;;3.13;1.70;;;;;;;;;;703399;28;935;-64
2024/02/22 00:17:49;;;;;;;2.75;1.50;;;;;;;;;;701143;28;991;-63
2024/02/22 00:18:09;;;;;;;3.03;1.50;;;;;;;;;;699127;28;1911;-64
2024/02/22 00:18:30;;;;;;;4.43;1.50;;;;;;;;;;701730;28;825;-65
2024/02/22 00:18:50;;;;;;;3.63;1.60;;;;;;;;;;701339;28;1392;-64
2024/02/22 00:19:10;;;;;;;3.37;1.60;;;;;;;;;;700580;28;4876;-63
2024/02/22 00:19:31;;;;;;;3.17;1.60;;;;;;;;;;700066;28;794;-63
2024/02/22 00:19:51;;;;;;;3.03;1.52;;;;;;;;;;701822;28;917;-64
2024/02/22 00:20:13;;;;;;;3.27;1.50;;;;;;;;;;701015;28;1257;-64
2024/02/22 00:20:33;;;;;;;2.97;1.50;;;;;;;;;;700849;28;1277;-64
2024/02/22 00:20:54;;;;;;;2.97;1.60;;;;;;;;;;702086;27;1504;-64
2024/02/22 00:21:14;;;;;;;2.97;1.50;;;;;;;;;;702004;27;912;-64
2024/02/22 00:21:35;;;;;;;2.50;1.50;;;;;;;;;;703693;28;976;-63
2024/02/22 00:21:55;;;;;;;2.60;1.40;;;;;;;;;;702969;27;2269;-64
2024/02/22 00:22:15;;;;;;;3.07;1.47;;;;;;;;;;701632;27;4490;-65
2024/02/22 00:22:36;;;;;;;2.83;1.47;;;;;;;;;;705984;27;842;-66
2024/02/22 00:22:57;;;;;;;3.00;1.50;;;;;;;;;;702569;27;1760;-64
2024/02/22 00:23:17;;;;;;;3.03;1.40;;;;;;;;;;703351;27;881;-65
2024/02/22 00:23:38;;;;;;;2.90;1.40;;;;;;;;;;700146;28;1344;-65
2024/02/22 00:23:58;;;;;;;2.72;1.40;;;;;;;;;;696854;28;2350;-63
2024/02/22 00:24:18;;;;;;;3.10;1.30;;;;;;;;;;697264;28;804;-63
2024/02/22 00:24:38;;;;;;;3.90;1.40;;;;;;;;;;696775;28;1891;-64
2024/02/22 00:24:58;;;;;;;3.42;1.40;;;;;;;;;;691208;28;1482;-63
2024/02/22 00:25:21;;;;;;;2.53;1.43;;;;;;;;;;693268;28;4480;-64
2024/02/22 00:25:41;;;;;;;2.17;1.30;;;;;;;;;;696594;28;1379;-64
2024/02/22 00:26:01;;;;;;;2.03;1.20;;;;;;;;;;697559;28;1891;-64
2024/02/22 00:26:22;;;;;;;2.77;1.50;;;;;;;;;;699390;28;1008;-65
2024/02/22 00:26:45;;;;;;;2.63;1.42;;;;;;;;;;702726;28;1314;-64
2024/02/22 00:27:05;;;;;;;2.78;1.50;;;;;;;;;;703057;27;1842;-63
2024/02/22 00:27:27;;;;;;;3.22;1.33;;;;;;;;;;701947;27;958;-64
2024/02/22 00:27:47;;;;;;;2.45;1.40;;;;;;;;;;706606;27;825;-64
2024/02/22 00:28:07;;;;;;;2.67;1.30;;;;;;;;;;703327;27;1851;-63
2024/02/22 00:28:27;;;;;;;2.93;1.30;;;;;;;;;;703492;27;4506;-64
2024/02/22 00:28:48;;;;;;;2.77;1.30;;;;;;;;;;699522;28;829;-64
2024/02/22 00:29:08;;;;;;;3.25;1.25;;;;;;;;;;700144;28;2097;-64
2024/02/22 00:29:28;;;;;;;3.30;1.40;;;;;;;;;;702531;28;904;-64
2024/02/22 00:29:48;;;;;;;3.13;1.30;;;;;;;;;;702529;28;1269;-63
2024/02/22 00:30:09;;;;;;;3.63;1.35;;;;;;;;;;700974;28;1966;-64
2024/02/22 00:30:30;;;;;;;2.92;1.45;;;;;;;;;;700419;28;908;-64
2024/02/22 00:30:50;;;;;;;2.87;1.40;;;;;;;;;;705197;27;1234;-63
2024/02/22 00:31:10;;;;;;;2.53;1.40;;;;;;;;;;703251;27;4458;-64
2024/02/22 00:31:30;;;;;;;2.65;1.40;;;;;;;;;;703378;27;1250;-65
2024/02/22 00:31:51;;;;;;;2.80;1.37;;;;;;;;;;703352;27;912;-64
2024/02/22 00:32:11;;;;;;;2.93;1.40;;;;;;;;;;699454;28;1703;-65
2024/02/22 00:32:31;;;;;;;3.00;1.37;;;;;;;;;;699255;28;1105;-65
2024/02/22 00:32:52;;;;;;;3.57;1.40;;;;;;;;;;698710;28;1786;-64
2024/02/22 00:33:12;;;;;;;3.60;1.43;;;;;;;;;;700882;28;1320;-65
2024/02/22 00:33:32;;;;;;;3.40;1.40;;;;;;;;;;698950;28;928;-65
2024/02/22 00:33:53;;;;;;;2.77;1.30;;;;;;;;;;698626;28;2516;-64
2024/02/22 00:34:13;;;;;;;3.03;1.50;;;;;;;;;;703046;27;4403;-65
2024/02/22 00:34:34;;;;;;;2.80;1.43;;;;;;;;;;703290;27;864;-64
2024/02/22 00:34:54;;;;;;;2.38;1.35;;;;;;;;;;701652;28;1897;-64
2024/02/22 00:35:15;;;;;;;3.03;1.30;;;;;;;;;;702629;28;959;-64
2024/02/22 00:35:35;;;;;;;2.88;1.33;;;;;;;;;;702943;28;1905;-64
2024/02/22 00:35:55;;;;;;;3.00;1.40;;;;;;;;;;701410;27;1875;-63
2024/02/22 00:36:17;;;;;;;3.03;1.30;;;;;;;;;;703753;28;1309;-64
2024/02/22 00:36:44;;;;;;;2.28;1.38;;;;;;;;;;702652;27;1003;-63
2024/02/22 00:37:04;;;;;;;2.83;1.38;;;;;;;;;;703271;27;2439;-65
2024/02/22 00:37:24;;;;;;;2.63;1.40;;;;;;;;;;704510;27;4318;-64
2024/02/22 00:37:45;;;;;;;2.08;1.33;;;;;;;;;;706119;27;922;-65
2024/02/22 00:38:05;;;;;;;2.10;1.20;;;;;;;;;;701775;28;1749;-64
2024/02/22 00:38:26;;;;;;;2.38;1.40;;;;;;;;;;703964;27;864;-64
2024/02/22 00:38:46;;;;;;;2.23;1.30;;;;;;;;;;704453;27;1251;-65
2024/02/22 00:39:08;;;;;;;2.45;1.30;;;;;;;;;;703149;28;1575;-65
2024/02/22 00:39:29;;;;;;;3.15;1.50;;;;;;;;;;703819;27;1295;-65
2024/02/22 00:39:50;;;;;;;2.72;1.40;;;;;;;;;;700581;28;910;-64
2024/02/22 00:40:13;;;;;;;2.40;1.40;;;;;;;;;;697196;28;4306;-65
2024/02/22 00:40:34;;;;;;;3.30;1.40;;;;;;;;;;699341;28;967;-64
2024/02/22 00:40:54;;;;;;;3.33;1.40;;;;;;;;;;695437;28;2670;-64
2024/02/22 00:41:14;;;;;;;3.30;1.40;;;;;;;;;;698029;28;1230;-65
2024/02/22 00:41:35;;;;;;;2.47;1.27;;;;;;;;;;698630;28;778;-64
2024/02/22 00:41:55;;;;;;;2.42;1.30;;;;;;;;;;701283;28;1596;-63
2024/02/22 00:42:19;;;;;;;2.55;1.30;;;;;;;;;;701798;27;888;-63
2024/02/22 00:42:40;;;;;;;2.77;1.40;;;;;;;;;;704444;27;1402;-64
2024/02/22 00:43:00;;;;;;;2.60;1.30;;;;;;;;;;694761;28;2051;-64
2024/02/22 00:43:20;;;;;;;2.57;1.40;;;;;;;;;;696895;28;4716;-64
2024/02/22 00:43:41;;;;;;;2.40;1.20;;;;;;;;;;695703;28;865;-65
2024/02/22 00:44:01;;;;;;;2.60;1.30;;;;;;;;;;694488;28;1753;-64
2024/02/22 00:44:21;;;;;;;2.53;1.40;;;;;;;;;;694690;28;1115;-64
2024/02/22 00:44:42;;;;;;;3.45;1.52;;;;;;;;;;695856;28;1021;-64
2024/02/22 00:45:03;;;;;;;3.03;1.48;;;;;;;;;;698288;28;1456;-64
2024/02/22 00:45:23;;;;;;;2.15;1.15;;;;;;;;;;701037;28;968;-64
2024/02/22 00:45:44;;;;;;;2.27;1.20;;;;;;;;;;697705;28;932;-64
2024/02/22 00:46:04;;;;;;;2.60;1.30;;;;;;;;;;698952;28;1015;-64
2024/02/22 00:46:24;;;;;;;2.80;1.40;;;;;;;;;;700462;28;4332;-64
2024/02/22 00:46:46;;;;;;;2.17;1.23;;;;;;;;;;699445;28;1275;-64
2024/02/22 00:47:06;;;;;;;2.33;1.20;;;;;;;;;;696466;28;2316;-65
2024/02/22 00:47:26;;;;;;;2.60;1.33;;;;;;;;;;699349;28;907;-63
2024/02/22 00:47:46;;;;;;;2.93;1.40;;;;;;;;;;700720;28;1337;-64
2024/02/22 00:48:07;;;;;;;2.60;1.37;;;;;;;;;;701695;28;1766;-64
2024/02/22 00:48:27;;;;;;;2.67;1.10;;;;;;;;;;701723;27;931;-65
2024/02/22 00:48:47;;;;;;;2.67;1.20;;;;;;;;;;706069;27;845;-64
2024/02/22 00:49:07;;;;;;;2.60;1.30;;;;;;;;;;702145;28;1986;-63
2024/02/22 00:49:28;;;;;;;3.42;1.40;;;;;;;;;;703817;27;4283;-65
2024/02/22 00:49:48;;;;;;;3.33;1.30;;;;;;;;;;704564;27;860;-64
2024/02/22 00:50:09;;;;;;;2.67;1.50;;;;;;;;;;703625;27;1895;-64
2024/02/22 00:50:29;;;;;;;2.50;1.30;;;;;;;;;;704014;28;975;-64
2024/02/22 00:50:49;;;;;;;2.40;1.30;;;;;;;;;;703889;27;1312;-64
2024/02/22 00:51:09;;;;;;;2.35;1.40;;;;;;;;;;701687;28;1144;-64
2024/02/22 00:51:30;;;;;;;2.30;1.30;;;;;;;;;;701067;28;1105;-63
2024/02/22 00:51:50;;;;;;;2.30;1.30;;;;;;;;;;703353;27;869;-65
2024/02/22 00:52:10;;;;;;;2.60;1.33;;;;;;;;;;702081;28;4505;-66
2024/02/22 00:52:30;;;;;;;2.50;1.30;;;;;;;;;;700588;28;1393;-65
2024/02/22 00:52:51;;;;;;;2.63;1.30;;;;;;;;;;699354;28;885;-64
2024/02/22 00:53:11;;;;;;;2.77;1.50;;;;;;;;;;696126;28;2312;-65
2024/02/22 00:53:31;;;;;;;3.00;1.40;;;;;;;;;;698257;28;948;-65
2024/02/22 00:53:51;;;;;;;2.63;1.20;;;;;;;;;;699878;28;884;-65
2024/02/22 00:54:12;;;;;;;2.40;1.20;;;;;;;;;;694797;28;1676;-65
2024/02/22 00:54:32;;;;;;;2.63;1.30;;;;;;;;;;696193;28;987;-64
2024/02/22 00:54:53;;;;;;;2.93;1.30;;;;;;;;;;695763;28;1876;-65
2024/02/22 00:55:13;;;;;;;2.97;1.30;;;;;;;;;;700420;28;4555;-64
2024/02/22 00:55:36;;;;;;;3.03;1.33;;;;;;;;;;700966;28;1978;-64
2024/02/22 00:55:56;;;;;;;2.85;1.17;;;;;;;;;;698450;28;2527;-64
2024/02/22 00:56:16;;;;;;;2.77;1.13;;;;;;;;;;699503;28;3514;-64
2024/02/22 00:56:37;;;;;;;3.28;1.30;;;;;;;;;;698967;28;4931;-64
2024/02/22 00:56:57;;;;;;;3.13;1.30;;;;;;;;;;700288;28;1930;-64
2024/02/22 00:57:17;;;;;;;2.97;1.40;;;;;;;;;;701932;28;1268;-64
2024/02/22 00:57:37;;;;;;;3.50;1.30;;;;;;;;;;702947;28;935;-64
2024/02/22 00:57:58;;;;;;;2.63;1.10;;;;;;;;;;697461;28;1757;-65
2024/02/22 00:58:18;;;;;;;2.90;1.30;;;;;;;;;;703316;27;4265;-65
2024/02/22 00:58:39;;;;;;;2.85;1.30;;;;;;;;;;706009;27;884;-65
2024/02/22 00:58:59;;;;;;;2.80;1.30;;;;;;;;;;703289;27;2396;-64
2024/02/22 00:59:19;;;;;;;2.40;1.30;;;;;;;;;;705885;27;864;-64
2024/02/22 00:59:40;;;;;;;1.80;1.10;;;;;;;;;;703621;28;955;-64
2024/02/22 01:00:00;;;;;;;1.77;1.13;;;;;;;;;;700996;28;1866;-65
2024/02/22 01:00:20;;;;;;;2.83;1.40;;;;;;;;;;702373;28;1293;-64
2024/02/22 01:00:40;;;;;;;2.57;1.30;;;;;;;;;;698840;28;844;-64
2024/02/22 01:01:01;;;;;;;2.90;1.40;;;;;;;;;;698018;28;2318;-64
2024/02/22 01:01:21;;;;;;;2.63;1.40;;;;;;;;;;698964;28;4463;-64
2024/02/22 01:01:41;;;;;;;3.20;1.30;;;;;;;;;;699668;28;1020;-66
2024/02/22 01:02:02;;;;;;;3.53;1.20;;;;;;;;;;700192;28;2019;-65
2024/02/22 01:02:26;;;;;;;3.75;1.20;;;;;;;;;;702669;28;761;-64
2024/02/22 01:02:46;;;;;;;2.33;1.35;;;;;;;;;;705356;27;852;-65
2024/02/22 01:03:06;;;;;;;3.07;1.50;;;;;;;;;;703066;28;2330;-64
2024/02/22 01:03:28;;;;;;;3.17;1.45;;;;;;;;;;702884;28;989;-65
2024/02/22 01:03:48;;;;;;;2.55;1.27;;;;;;;;;;704879;27;1351;-65
2024/02/22 01:04:10;;;;;;;3.28;1.20;;;;;;;;;;703001;27;2886;-65
2024/02/22 01:04:30;;;;;;;2.85;1.30;;;;;;;;;;705194;27;4675;-65
2024/02/22 01:04:50;;;;;;;2.63;1.40;;;;;;;;;;704751;27;1001;-61
2024/02/22 01:05:10;;;;;;;3.37;1.57;;;;;;;;;;702079;27;1458;-65
2024/02/22 01:05:31;;;;;;;2.63;1.47;;;;;;;;;;703412;27;1198;-63
2024/02/22 01:05:51;;;;;;;2.37;1.30;;;;;;;;;;704866;27;1387;-64
2024/02/22 01:06:13;;;;;;;2.42;1.30;;;;;;;;;;703654;27;1736;-64
2024/02/22 01:06:34;;;;;;;2.60;1.30;;;;;;;;;;704507;27;1146;-63
2024/02/22 01:06:55;;;;;;;2.97;1.30;;;;;;;;;;703393;28;1747;-65
2024/02/22 01:07:16;;;;;;;3.22;1.30;;;;;;;;;;706220;27;4319;-64
2024/02/22 01:07:36;;;;;;;3.20;1.75;;;;;;;;;;703149;28;1230;-66
2024/02/22 01:07:56;;;;;;;2.43;1.40;;;;;;;;;;696877;28;2736;-65
2024/02/22 01:08:16;;;;;;;2.70;1.23;;;;;;;;;;698377;28;900;-65
2024/02/22 01:08:37;;;;;;;2.72;1.23;;;;;;;;;;698641;28;1301;-65
2024/02/22 01:08:57;;;;;;;2.20;1.17;;;;;;;;;;698140;28;1153;-63
2024/02/22 01:09:18;;;;;;;2.53;1.30;;;;;;;;;;698083;28;1456;-64
2024/02/22 01:09:38;;;;;;;2.22;1.20;;;;;;;;;;695792;28;913;-63
2024/02/22 01:09:58;;;;;;;2.43;1.27;;;;;;;;;;702853;27;2138;-64
2024/02/22 01:10:18;;;;;;;2.00;1.20;;;;;;;;;;703139;28;4477;-63
2024/02/22 01:10:39;;;;;;;3.05;1.30;;;;;;;;;;706020;27;860;-64
2024/02/22 01:10:59;;;;;;;2.17;1.20;;;;;;;;;;701522;28;2736;-64
2024/02/22 01:11:19;;;;;;;2.70;1.20;;;;;;;;;;705775;27;868;-63
2024/02/22 01:11:39;;;;;;;2.10;1.20;;;;;;;;;;704779;27;1022;-64
2024/02/22 01:11:59;;;;;;;2.87;1.30;;;;;;;;;;703999;27;1859;-64
2024/02/22 01:12:20;;;;;;;2.77;1.30;;;;;;;;;;704042;27;1380;-64
2024/02/22 01:12:40;;;;;;;2.42;1.25;;;;;;;;;;703494;28;1030;-64
2024/02/22 01:13:00;;;;;;;2.47;1.30;;;;;;;;;;702849;27;2165;-64
2024/02/22 01:13:22;;;;;;;2.27;1.20;;;;;;;;;;703509;27;4286;-64
2024/02/22 01:13:42;;;;;;;3.95;2.00;;;;;;;;;;704505;27;1287;-64
2024/02/22 01:14:02;;;;;;;3.67;2.00;;;;;;;;;;701900;28;1840;-65
2024/02/22 01:14:23;;;;;;;2.45;1.30;;;;;;;;;;699549;28;988;-64
2024/02/22 01:14:43;;;;;;;2.87;1.50;;;;;;;;;;701010;28;872;-64
2024/02/22 01:15:03;;;;;;;3.07;1.33;;;;;;;;;;698909;28;1775;-63
2024/02/22 01:15:24;;;;;;;4.18;1.35;;;;;;;;;;702125;28;1056;-65
2024/02/22 01:15:44;;;;;;;3.70;1.20;;;;;;;;;;701742;28;1906;-65
2024/02/22 01:16:04;;;;;;;2.67;1.20;;;;;;;;;;700428;28;1976;-63
2024/02/22 01:16:25;;;;;;;3.00;1.40;;;;;;;;;;702845;28;4328;-64
2024/02/22 01:16:45;;;;;;;2.77;1.30;;;;;;;;;;703949;28;935;-63
2024/02/22 01:17:06;;;;;;;2.47;1.20;;;;;;;;;;703176;27;1736;-63
2024/02/22 01:17:26;;;;;;;2.60;1.30;;;;;;;;;;703920;28;1352;-62
2024/02/22 01:17:47;;;;;;;2.70;1.27;;;;;;;;;;700102;28;900;-63
2024/02/22 01:18:07;;;;;;;2.83;1.17;;;;;;;;;;696679;28;1765;-62
2024/02/22 01:18:28;;;;;;;2.53;1.23;;;;;;;;;;698929;28;1014;-64
2024/02/22 01:18:48;;;;;;;2.47;1.20;;;;;;;;;;698453;28;1451;-62
2024/02/22 01:19:08;;;;;;;3.00;1.30;;;;;;;;;;697124;28;1298;-64
2024/02/22 01:19:29;;;;;;;2.97;1.30;;;;;;;;;;700609;28;4206;-64
2024/02/22 01:19:49;;;;;;;2.67;1.20;;;;;;;;;;700160;28;797;-64
2024/02/22 01:20:10;;;;;;;3.10;1.30;;;;;;;;;;702827;27;1599;-63
2024/02/22 01:20:31;;;;;;;2.08;1.30;;;;;;;;;;704892;27;1209;-63
2024/02/22 01:20:51;;;;;;;1.97;1.30;;;;;;;;;;704497;27;847;-64
2024/02/22 01:21:12;;;;;;;2.67;1.37;;;;;;;;;;703290;27;2209;-63
2024/02/22 01:21:32;;;;;;;2.28;1.30;;;;;;;;;;702850;28;1223;-63
2024/02/22 01:21:52;;;;;;;3.20;1.27;;;;;;;;;;701334;28;915;-63
2024/02/22 01:22:13;;;;;;;3.17;1.33;;;;;;;;;;698813;28;4481;-63
2024/02/22 01:22:33;;;;;;;2.60;1.27;;;;;;;;;;698363;28;1905;-63
2024/02/22 01:22:54;;;;;;;3.20;1.30;;;;;;;;;;700778;28;940;-63
2024/02/22 01:23:15;;;;;;;2.85;1.27;;;;;;;;;;698597;28;967;-63
2024/02/22 01:23:35;;;;;;;2.30;1.13;;;;;;;;;;701463;28;884;-63
2024/02/22 01:23:56;;;;;;;2.10;1.10;;;;;;;;;;699939;28;1818;-63
2024/02/22 01:24:17;;;;;;;2.40;1.20;;;;;;;;;;701337;28;786;-64
2024/02/22 01:24:37;;;;;;;2.40;1.30;;;;;;;;;;697611;28;866;-63
2024/02/22 01:24:57;;;;;;;1.90;1.20;;;;;;;;;;697760;28;1891;-62
2024/02/22 01:25:18;;;;;;;2.07;1.17;;;;;;;;;;697629;28;4331;-64
2024/02/22 01:25:38;;;;;;;2.23;1.10;;;;;;;;;;699607;28;1377;-63
2024/02/22 01:25:58;;;;;;;2.40;1.20;;;;;;;;;;698522;28;1865;-63
2024/02/22 01:26:19;;;;;;;2.63;1.20;;;;;;;;;;699099;28;832;-63
2024/02/22 01:26:39;;;;;;;2.65;1.20;;;;;;;;;;702856;27;1158;-62
2024/02/22 01:26:59;;;;;;;3.40;1.23;;;;;;;;;;704102;27;1753;-62
2024/02/22 01:27:20;;;;;;;4.43;1.20;;;;;;;;;;705419;27;1087;-63
2024/02/22 01:27:40;;;;;;;2.95;1.30;;;;;;;;;;705765;27;954;-64
2024/02/22 01:28:00;;;;;;;2.10;1.10;;;;;;;;;;704006;27;1936;-64
2024/02/22 01:28:21;;;;;;;2.33;1.20;;;;;;;;;;704601;27;4685;-63
2024/02/22 01:28:41;;;;;;;2.65;1.20;;;;;;;;;;704762;27;1321;-63
2024/02/22 01:29:03;;;;;;;3.03;1.27;;;;;;;;;;702686;27;1729;-63
2024/02/22 01:29:25;;;;;;;2.20;1.20;;;;;;;;;;705315;27;899;-63
2024/02/22 01:29:45;;;;;;;2.30;1.15;;;;;;;;;;705021;27;998;-64
2024/02/22 01:30:06;;;;;;;2.07;1.10;;;;;;;;;;703757;27;1490;-64
2024/02/22 01:30:26;;;;;;;2.50;1.30;;;;;;;;;;703829;27;900;-63
2024/02/22 01:30:46;;;;;;;2.27;1.20;;;;;;;;;;704307;27;1219;-63
2024/02/22 01:31:06;;;;;;;2.03;1.13;;;;;;;;;;702698;28;2291;-63
2024/02/22 01:31:26;;;;;;;2.23;1.23;;;;;;;;;;703552;27;4335;-67
2024/02/22 01:31:47;;;;;;;2.43;1.30;;;;;;;;;;703571;27;1313;-64
2024/02/22 01:32:07;;;;;;;2.90;1.60;;;;;;;;;;699724;28;1751;-63
2024/02/22 01:32:28;;;;;;;2.60;1.57;;;;;;;;;;701742;28;1282;-62
2024/02/22 01:32:48;;;;;;;2.10;1.20;;;;;;;;;;702068;28;891;-63
2024/02/22 01:33:09;;;;;;;2.43;1.20;;;;;;;;;;700231;28;1772;-63
2024/02/22 01:33:29;;;;;;;2.15;1.10;;;;;;;;;;699604;28;1456;-63
2024/02/22 01:33:49;;;;;;;2.20;1.20;;;;;;;;;;698050;28;892;-63
2024/02/22 01:34:10;;;;;;;2.60;1.10;;;;;;;;;;700478;28;4534;-63
2024/02/22 01:34:30;;;;;;;2.70;1.30;;;;;;;;;;703067;28;895;-64
2024/02/22 01:34:50;;;;;;;2.83;1.27;;;;;;;;;;703149;28;923;-63
2024/02/22 01:35:11;;;;;;;2.58;1.30;;;;;;;;;;700119;28;1462;-63
2024/02/22 01:35:31;;;;;;;2.50;1.30;;;;;;;;;;702006;28;809;-63
2024/02/22 01:35:51;;;;;;;2.70;1.20;;;;;;;;;;701859;28;1320;-63
2024/02/22 01:36:12;;;;;;;2.25;1.10;;;;;;;;;;699898;28;1735;-63
2024/02/22 01:36:32;;;;;;;2.00;1.10;;;;;;;;;;702394;28;1300;-64
2024/02/22 01:36:52;;;;;;;2.03;1.10;;;;;;;;;;701472;28;892;-63
2024/02/22 01:37:13;;;;;;;2.30;1.10;;;;;;;;;;699179;28;4444;-63
2024/02/22 01:37:33;;;;;;;2.37;1.27;;;;;;;;;;701253;28;1074;-62
2024/02/22 01:37:53;;;;;;;2.70;1.20;;;;;;;;;;702115;28;928;-63
2024/02/22 01:38:13;;;;;;;2.10;1.20;;;;;;;;;;701681;28;1747;-64
2024/02/22 01:38:35;;;;;;;1.97;1.20;;;;;;;;;;704017;27;793;-63
2024/02/22 01:38:55;;;;;;;2.42;1.20;;;;;;;;;;703595;27;1191;-63
2024/02/22 01:39:16;;;;;;;2.37;1.17;;;;;;;;;;703612;27;1178;-63
2024/02/22 01:39:36;;;;;;;2.03;1.20;;;;;;;;;;704559;28;1263;-63
2024/02/22 01:39:57;;;;;;;1.85;1.17;;;;;;;;;;703187;27;1793;-63
2024/02/22 01:40:17;;;;;;;1.93;1.10;;;;;;;;;;703656;28;4392;-63
2024/02/22 01:40:37;;;;;;;2.00;1.10;;;;;;;;;;706219;27;1472;-63
2024/02/22 01:40:57;;;;;;;1.90;1.20;;;;;;;;;;703509;27;1926;-62
2024/02/22 01:41:18;;;;;;;2.53;1.30;;;;;;;;;;705029;27;987;-63
2024/02/22 01:41:38;;;;;;;2.17;1.20;;;;;;;;;;705850;27;1297;-63
2024/02/22 01:41:58;;;;;;;2.33;1.20;;;;;;;;;;704142;27;1855;-64
2024/02/22 01:42:19;;;;;;;2.25;1.10;;;;;;;;;;702503;27;903;-62
2024/02/22 01:42:42;;;;;;;2.77;1.20;;;;;;;;;;703580;28;926;-62
2024/02/22 01:43:02;;;;;;;2.45;1.10;;;;;;;;;;703943;27;2034;-62
2024/02/22 01:43:23;;;;;;;2.73;1.20;;;;;;;;;;702198;27;4613;-63
2024/02/22 01:43:43;;;;;;;2.60;1.30;;;;;;;;;;703807;28;806;-63
2024/02/22 01:44:04;;;;;;;2.67;1.20;;;;;;;;;;703781;27;1883;-63
2024/02/22 01:44:26;;;;;;;3.47;1.60;;;;;;;;;;705301;27;1173;-63
2024/02/22 01:44:47;;;;;;;2.80;1.20;;;;;;;;;;703782;27;1471;-63
2024/02/22 01:45:07;;;;;;;2.28;1.10;;;;;;;;;;702652;27;1497;-63
2024/02/22 01:45:27;;;;;;;2.00;1.20;;;;;;;;;;704863;27;856;-63
2024/02/22 01:45:48;;;;;;;2.13;1.20;;;;;;;;;;704428;27;833;-62
2024/02/22 01:46:09;;;;;;;3.53;1.20;;;;;;;;;;703015;27;2509;-63
2024/02/22 01:46:29;;;;;;;3.13;1.15;;;;;;;;;;704634;27;4280;-62
2024/02/22 01:46:49;;;;;;;2.40;1.10;;;;;;;;;;705405;27;896;-63
2024/02/22 01:47:10;;;;;;;2.75;1.30;;;;;;;;;;703866;27;843;-63
2024/02/22 01:47:30;;;;;;;2.60;1.17;;;;;;;;;;704000;28;832;-62
2024/02/22 01:47:50;;;;;;;2.60;1.10;;;;;;;;;;702611;28;1361;-63
2024/02/22 01:48:11;;;;;;;2.97;1.20;;;;;;;;;;699953;28;1763;-62
2024/02/22 01:48:32;;;;;;;2.83;1.30;;;;;;;;;;702839;28;840;-65
2024/02/22 01:48:52;;;;;;;3.00;1.30;;;;;;;;;;701386;28;968;-62
2024/02/22 01:49:12;;;;;;;2.77;1.23;;;;;;;;;;701218;28;4551;-63
2024/02/22 01:49:32;;;;;;;2.80;1.30;;;;;;;;;;701039;27;1257;-64
2024/02/22 01:49:53;;;;;;;2.20;1.13;;;;;;;;;;703247;28;967;-62
2024/02/22 01:50:13;;;;;;;2.43;1.23;;;;;;;;;;699912;28;1753;-62
2024/02/22 01:50:33;;;;;;;1.98;1.20;;;;;;;;;;702362;28;966;-63
2024/02/22 01:50:55;;;;;;;2.53;1.20;;;;;;;;;;702124;28;936;-62
2024/02/22 01:51:15;;;;;;;2.30;1.10;;;;;;;;;;700696;28;1446;-63
2024/02/22 01:51:36;;;;;;;2.60;1.20;;;;;;;;;;702390;28;900;-63
2024/02/22 01:52:00;;;;;;;1.95;1.10;;;;;;;;;;703285;27;880;-63
2024/02/22 01:52:21;;;;;;;2.45;1.20;;;;;;;;;;705097;27;4360;-63
2024/02/22 01:52:42;;;;;;;2.50;1.20;;;;;;;;;;703454;27;3873;-62
2024/02/22 01:53:03;;;;;;;2.00;1.20;;;;;;;;;;702759;27;2629;-63
2024/02/22 01:53:25;;;;;;;2.13;1.17;;;;;;;;;;704273;27;1387;-63
2024/02/22 01:53:45;;;;;;;2.08;1.15;;;;;;;;;;702983;28;983;-63
2024/02/22 01:54:06;;;;;;;2.40;1.23;;;;;;;;;;702604;28;1733;-63
2024/02/22 01:54:26;;;;;;;1.90;1.10;;;;;;;;;;704085;28;1471;-63
2024/02/22 01:54:46;;;;;;;2.90;1.30;;;;;;;;;;703607;28;927;-62
2024/02/22 01:55:07;;;;;;;2.67;1.20;;;;;;;;;;702236;28;2471;-63
2024/02/22 01:55:27;;;;;;;1.90;1.10;;;;;;;;;;703333;27;4459;-61
2024/02/22 01:55:51;;;;;;;2.00;1.20;;;;;;;;;;698280;28;1918;-63
2024/02/22 01:56:11;;;;;;;2.00;1.10;;;;;;;;;;693675;28;1741;-62
2024/02/22 01:56:34;;;;;;;2.08;1.10;;;;;;;;;;696556;28;987;-62
2024/02/22 01:56:54;;;;;;;2.67;1.40;;;;;;;;;;696561;28;1444;-62
2024/02/22 01:57:15;;;;;;;2.37;1.20;;;;;;;;;;695956;28;1738;-62
2024/02/22 01:57:35;;;;;;;2.17;1.30;;;;;;;;;;698554;28;1290;-63
2024/02/22 01:57:55;;;;;;;2.90;1.30;;;;;;;;;;702808;28;911;-63
2024/02/22 01:58:16;;;;;;;1.93;1.10;;;;;;;;;;702174;28;4347;-63
2024/02/22 01:58:37;;;;;;;2.30;1.23;;;;;;;;;;701625;28;1584;-61
2024/02/22 01:59:06;;;;;;;2.28;1.20;;;;;;;;;;695998;28;2224;-62
2024/02/22 01:59:26;;;;;;;2.10;1.10;;;;;;;;;;698144;28;948;-62
2024/02/22 01:59:47;;;;;;;1.93;1.10;;;;;;;;;;698121;28;920;-61
2024/02/22 02:00:17;;;;;;;2.47;1.10;;;;;;;;;;696070;28;1740;-61
2024/02/22 02:00:38;;;;;;;2.47;1.25;;;;;;;;;;702896;28;971;-62
2024/02/22 02:01:00;;;;;;;2.25;1.20;;;;;;;;;;698590;28;1870;-62
2024/02/22 02:01:22;;;;;;;2.10;1.20;;;;;;;;;;699423;28;4355;-62
2024/02/22 02:01:42;;;;;;;3.28;1.30;;;;;;;;;;702651;28;1333;-61
2024/02/22 02:02:04;;;;;;;2.90;1.30;;;;;;;;;;699727;28;2168;-61
2024/02/22 02:02:24;;;;;;;2.72;1.30;;;;;;;;;;700639;28;1308;-62
2024/02/22 02:02:44;;;;;;;2.08;1.13;;;;;;;;;;702827;28;868;-63
2024/02/22 02:03:05;;;;;;;2.50;1.20;;;;;;;;;;701536;28;1975;-64
2024/02/22 02:03:26;;;;;;;2.35;1.23;;;;;;;;;;701089;28;1337;-61
2024/02/22 02:03:46;;;;;;;2.10;1.15;;;;;;;;;;700820;28;935;-62
2024/02/22 02:04:08;;;;;;;2.60;1.20;;;;;;;;;;699178;28;1810;-62
2024/02/22 02:04:29;;;;;;;2.97;1.20;;;;;;;;;;699460;28;4293;-62
2024/02/22 02:04:49;;;;;;;2.92;1.35;;;;;;;;;;701223;28;927;-61
2024/02/22 02:05:10;;;;;;;2.37;1.20;;;;;;;;;;700096;28;2206;-62
2024/02/22 02:05:30;;;;;;;2.28;1.17;;;;;;;;;;705219;27;1422;-61
2024/02/22 02:05:50;;;;;;;3.20;1.37;;;;;;;;;;705921;27;939;-60
2024/02/22 02:06:10;;;;;;;4.13;1.30;;;;;;;;;;699831;28;1532;-62
2024/02/22 02:06:31;;;;;;;2.53;1.20;;;;;;;;;;701308;28;844;-62
2024/02/22 02:06:51;;;;;;;1.83;1.10;;;;;;;;;;702302;28;1058;-61
2024/02/22 02:07:11;;;;;;;2.43;1.20;;;;;;;;;;699014;28;4535;-62
2024/02/22 02:07:32;;;;;;;3.10;1.30;;;;;;;;;;700740;28;912;-61
2024/02/22 02:07:52;;;;;;;3.30;1.50;;;;;;;;;;701374;28;880;-64
2024/02/22 02:08:12;;;;;;;2.55;1.25;;;;;;;;;;698377;28;1684;-61